createdAt,value
2019-02-16T00:00:12.346Z,111.08
2019-02-16T00:00:54.212Z,109.80
2019-02-16T00:01:29.812Z,132.37
2019-02-16T00:02:05.190Z,131.87
2019-02-16T00:02:40.647Z,118.35
2019-02-16T00:03:16.066Z,126.42
2019-02-16T00:03:51.524Z,142.87
2019-02-16T00:04:27.225Z,125.70
2019-02-16T00:05:03.359Z,125.65
2019-02-16T00:05:38.831Z,190.75
2019-02-16T00:06:14.353Z,148.32
2019-02-16T00:06:49.677Z,123.90
2019-02-16T00:07:25.074Z,123.82
2019-02-16T00:08:00.449Z,125.78
2019-02-16T00:08:35.767Z,160.10
2019-02-16T00:09:11.469Z,117.20
2019-02-16T00:09:46.806Z,126.85
2019-02-16T00:10:22.536Z,159.72
2019-02-16T00:10:58.387Z,114.28
2019-02-16T00:11:33.933Z,128.72
2019-02-16T00:12:09.293Z,107.67
2019-02-16T00:12:45.144Z,105.75
2019-02-16T00:13:20.424Z,102.17
2019-02-16T00:13:55.952Z,133.75
2019-02-16T00:14:31.484Z,116.42
2019-02-16T00:15:07.164Z,116.00
2019-02-16T00:15:42.685Z,119.55
2019-02-16T00:16:18.180Z,167.60
2019-02-16T00:16:53.911Z,136.55
2019-02-16T00:17:29.554Z,119.82
2019-02-16T00:18:05.114Z,119.60
2019-02-16T00:18:40.874Z,119.37
2019-02-16T00:19:16.505Z,129.78
2019-02-16T00:19:52.037Z,123.20
2019-02-16T00:20:27.489Z,125.45
2019-02-16T00:21:04.261Z,116.42
2019-02-16T00:21:40.070Z,119.02
2019-02-16T00:22:15.572Z,105.20
2019-02-16T00:22:51.189Z,103.32
2019-02-16T00:23:28.149Z,104.45
2019-02-16T00:24:04.673Z,106.70
2019-02-16T00:24:39.999Z,109.75
2019-02-16T00:25:15.689Z,98.85
2019-02-16T00:25:51.312Z,105.60
2019-02-16T00:26:26.766Z,102.50
2019-02-16T00:27:02.184Z,98.55
2019-02-16T00:27:38.145Z,92.20
2019-02-16T00:28:13.564Z,94.00
2019-02-16T00:28:49.108Z,94.32
2019-02-16T00:29:24.512Z,103.02
2019-02-16T00:29:59.992Z,97.78
2019-02-16T00:30:35.425Z,101.85
2019-02-16T00:31:10.805Z,120.77
2019-02-16T00:31:47.253Z,131.95
2019-02-16T00:32:22.704Z,176.45
2019-02-16T00:32:58.149Z,121.82
2019-02-16T00:33:33.705Z,102.00
2019-02-16T00:34:09.244Z,100.72
2019-02-16T00:34:44.952Z,103.12
2019-02-16T00:35:20.565Z,183.97
2019-02-16T00:35:56.286Z,113.12
2019-02-16T00:36:31.906Z,122.30
2019-02-16T00:37:09.229Z,97.88
2019-02-16T00:37:44.546Z,109.45
2019-02-16T00:38:20.386Z,103.97
2019-02-16T00:38:58.827Z,106.85
2019-02-16T00:39:34.276Z,127.67
2019-02-16T00:40:09.807Z,115.17
2019-02-16T00:40:45.247Z,109.75
2019-02-16T00:41:20.724Z,122.87
2019-02-16T00:41:56.225Z,121.25
2019-02-16T00:42:31.566Z,121.85
2019-02-16T00:43:07.025Z,123.13
2019-02-16T00:43:42.326Z,116.73
2019-02-16T00:44:17.744Z,118.28
2019-02-16T00:44:53.085Z,126.42
2019-02-16T00:45:28.612Z,131.25
2019-02-16T00:46:04.185Z,118.57
2019-02-16T00:46:39.547Z,117.17
2019-02-16T00:47:14.966Z,122.13
2019-02-16T00:47:50.314Z,124.45
2019-02-16T00:48:25.726Z,118.35
2019-02-16T00:49:01.286Z,109.25
2019-02-16T00:49:36.655Z,105.25
2019-02-16T00:50:12.334Z,112.90
2019-02-16T00:50:47.710Z,99.60
2019-02-16T00:51:23.246Z,97.22
2019-02-16T00:51:58.785Z,100.40
2019-02-16T00:52:34.311Z,118.87
2019-02-16T00:53:09.647Z,125.12
2019-02-16T00:53:45.006Z,141.18
2019-02-16T00:54:20.332Z,140.22
2019-02-16T00:54:56.829Z,135.32
2019-02-16T00:55:32.852Z,123.80
2019-02-16T00:56:08.434Z,132.18
2019-02-16T00:56:43.892Z,129.25
2019-02-16T00:57:19.328Z,133.82
2019-02-16T00:57:54.696Z,139.75
2019-02-16T00:58:31.248Z,132.10
2019-02-16T00:59:06.768Z,202.47
2019-02-16T00:59:42.328Z,171.22
2019-02-16T01:00:17.927Z,105.90
2019-02-16T01:00:53.329Z,107.70
2019-02-16T01:01:28.929Z,114.08
2019-02-16T01:02:04.448Z,109.87
2019-02-16T01:02:56.746Z,116.90
2019-02-16T01:03:32.832Z,96.55
2019-02-16T01:04:08.308Z,103.47
2019-02-16T01:04:43.988Z,97.05
2019-02-16T01:05:19.578Z,91.55
2019-02-16T01:05:55.204Z,84.62
2019-02-16T01:06:32.048Z,99.58
2019-02-16T01:07:07.987Z,97.80
2019-02-16T01:07:46.684Z,99.75
2019-02-16T01:08:23.676Z,98.07
2019-02-16T01:08:59.203Z,93.85
2019-02-16T01:09:34.544Z,89.67
2019-02-16T01:10:10.606Z,89.35
2019-02-16T01:10:46.148Z,101.25
2019-02-16T01:11:21.486Z,95.95
2019-02-16T01:11:56.750Z,91.37
2019-02-16T01:12:32.206Z,94.03
2019-02-16T01:13:07.606Z,92.80
2019-02-16T01:13:43.126Z,89.35
2019-02-16T01:14:18.652Z,93.03
2019-02-16T01:14:54.092Z,88.15
2019-02-16T01:15:29.472Z,85.03
2019-02-16T01:16:04.732Z,86.42
2019-02-16T01:16:40.184Z,90.32
2019-02-16T01:17:15.812Z,87.05
2019-02-16T01:17:51.224Z,89.55
2019-02-16T01:18:26.824Z,87.85
2019-02-16T01:19:02.124Z,87.12
2019-02-16T01:19:37.544Z,88.62
2019-02-16T01:20:13.684Z,85.42
2019-02-16T01:20:49.152Z,88.22
2019-02-16T01:21:25.452Z,87.42
2019-02-16T01:22:00.984Z,90.12
2019-02-16T01:22:36.495Z,92.92
2019-02-16T01:23:12.044Z,88.15
2019-02-16T01:23:47.551Z,87.33
2019-02-16T01:24:22.951Z,84.60
2019-02-16T01:24:58.471Z,91.37
2019-02-16T01:25:33.784Z,84.55
2019-02-16T01:26:09.004Z,88.80
2019-02-16T01:26:44.386Z,92.85
2019-02-16T01:27:19.691Z,83.37
2019-02-16T01:27:55.765Z,79.25
2019-02-16T01:28:31.165Z,85.15
2019-02-16T01:29:07.506Z,83.75
2019-02-16T01:29:42.824Z,90.00
2019-02-16T01:30:19.164Z,93.52
2019-02-16T01:30:54.423Z,92.82
2019-02-16T01:31:29.984Z,85.87
2019-02-16T01:32:05.416Z,92.42
2019-02-16T01:32:40.896Z,99.17
2019-02-16T01:33:16.364Z,102.15
2019-02-16T01:33:51.829Z,104.58
2019-02-16T01:34:27.564Z,102.45
2019-02-16T01:35:03.074Z,92.97
2019-02-16T01:35:38.366Z,88.78
2019-02-16T01:36:13.887Z,95.10
2019-02-16T01:36:49.346Z,92.72
2019-02-16T01:37:24.824Z,110.52
2019-02-16T01:38:00.185Z,122.72
2019-02-16T01:38:35.584Z,95.60
2019-02-16T01:39:10.952Z,101.90
2019-02-16T01:39:47.089Z,92.27
2019-02-16T01:40:22.644Z,85.35
2019-02-16T01:40:58.286Z,86.87
2019-02-16T01:41:33.609Z,84.05
2019-02-16T01:42:09.168Z,82.40
2019-02-16T01:42:44.528Z,84.87
2019-02-16T01:43:19.948Z,78.33
2019-02-16T01:43:55.384Z,83.05
2019-02-16T01:44:31.152Z,81.50
2019-02-16T01:45:06.935Z,79.37
2019-02-16T01:45:42.292Z,86.17
2019-02-16T01:46:17.726Z,79.60
2019-02-16T01:46:53.165Z,81.87
2019-02-16T01:47:28.704Z,76.20
2019-02-16T01:48:03.966Z,79.17
2019-02-16T01:48:39.769Z,74.10
2019-02-16T01:49:15.244Z,83.55
2019-02-16T01:49:50.664Z,81.10
2019-02-16T01:50:26.008Z,93.17
2019-02-16T01:51:01.416Z,87.88
2019-02-16T01:51:36.936Z,99.55
2019-02-16T01:52:12.492Z,101.27
2019-02-16T01:52:48.114Z,123.85
2019-02-16T01:53:23.432Z,101.65
2019-02-16T01:53:58.785Z,88.82
2019-02-16T01:54:34.114Z,87.50
2019-02-16T01:55:11.172Z,101.67
2019-02-16T01:55:47.553Z,97.45
2019-02-16T01:56:23.127Z,120.85
2019-02-16T01:56:58.767Z,99.70
2019-02-16T01:57:34.226Z,87.08
2019-02-16T01:58:09.627Z,84.52
2019-02-16T01:58:44.988Z,87.02
2019-02-16T01:59:20.844Z,82.17
2019-02-16T01:59:56.146Z,87.15
2019-02-16T02:00:31.588Z,81.12
2019-02-16T02:01:06.917Z,93.60
2019-02-16T02:01:42.471Z,105.47
2019-02-16T02:02:17.829Z,100.30
2019-02-16T02:02:53.309Z,114.55
2019-02-16T02:03:28.832Z,106.05
2019-02-16T02:04:04.366Z,107.25
2019-02-16T02:04:39.694Z,118.50
2019-02-16T02:05:15.286Z,110.32
2019-02-16T02:05:50.746Z,106.92
2019-02-16T02:06:26.412Z,103.35
2019-02-16T02:07:01.908Z,108.60
2019-02-16T02:07:37.727Z,94.25
2019-02-16T02:08:13.087Z,99.40
2019-02-16T02:08:48.585Z,103.60
2019-02-16T02:09:24.446Z,99.37
2019-02-16T02:09:59.766Z,100.75
2019-02-16T02:10:35.246Z,103.70
2019-02-16T02:11:10.646Z,110.70
2019-02-16T02:11:46.092Z,108.57
2019-02-16T02:12:21.627Z,116.47
2019-02-16T02:12:57.230Z,105.27
2019-02-16T02:13:33.270Z,105.97
2019-02-16T02:14:08.592Z,109.32
2019-02-16T02:14:44.168Z,96.53
2019-02-16T02:15:19.721Z,115.00
2019-02-16T02:15:55.205Z,112.15
2019-02-16T02:16:30.532Z,112.35
2019-02-16T02:17:05.985Z,123.38
2019-02-16T02:17:41.369Z,115.60
2019-02-16T02:18:16.743Z,110.05
2019-02-16T02:18:52.166Z,115.15
2019-02-16T02:19:27.587Z,122.78
2019-02-16T02:20:02.932Z,109.90
2019-02-16T02:20:38.344Z,159.20
2019-02-16T02:21:13.686Z,128.62
2019-02-16T02:21:48.986Z,125.20
2019-02-16T02:22:24.764Z,118.00
2019-02-16T02:23:00.051Z,112.75
2019-02-16T02:23:35.373Z,129.20
2019-02-16T02:24:10.791Z,135.93
2019-02-16T02:24:46.050Z,131.32
2019-02-16T02:25:21.532Z,114.28
2019-02-16T02:25:56.887Z,122.37
2019-02-16T02:26:32.366Z,130.55
2019-02-16T02:27:07.786Z,129.57
2019-02-16T02:27:43.266Z,115.00
2019-02-16T02:28:18.546Z,110.22
2019-02-16T02:28:54.072Z,102.65
2019-02-16T02:29:29.492Z,103.55
2019-02-16T02:30:05.112Z,95.17
2019-02-16T02:30:40.365Z,95.85
2019-02-16T02:31:15.665Z,86.92
2019-02-16T02:31:51.112Z,85.15
2019-02-16T02:32:26.416Z,85.62
2019-02-16T02:33:01.894Z,90.97
2019-02-16T02:33:37.226Z,91.63
2019-02-16T02:34:12.844Z,94.00
2019-02-16T02:34:48.269Z,88.95
2019-02-16T02:35:23.637Z,83.90
2019-02-16T02:35:58.912Z,90.77
2019-02-16T02:36:34.385Z,92.67
2019-02-16T02:37:09.644Z,87.57
2019-02-16T02:37:44.924Z,86.92
2019-02-16T02:38:20.384Z,89.77
2019-02-16T02:38:55.686Z,97.30
2019-02-16T02:39:31.137Z,101.00
2019-02-16T02:40:06.730Z,93.58
2019-02-16T02:40:42.146Z,89.75
2019-02-16T02:41:17.687Z,94.28
2019-02-16T02:41:53.225Z,91.75
2019-02-16T02:42:28.664Z,87.95
2019-02-16T02:43:03.985Z,85.38
2019-02-16T02:43:39.461Z,84.75
2019-02-16T02:44:14.832Z,85.55
2019-02-16T02:44:50.224Z,85.62
2019-02-16T02:45:25.704Z,88.10
2019-02-16T02:46:01.027Z,86.00
2019-02-16T02:46:36.507Z,91.65
2019-02-16T02:47:11.786Z,84.95
2019-02-16T02:47:47.150Z,84.07
2019-02-16T02:48:22.487Z,85.77
2019-02-16T02:48:57.813Z,85.15
2019-02-16T02:49:33.154Z,82.02
2019-02-16T02:50:08.605Z,80.00
2019-02-16T02:50:44.024Z,81.47
2019-02-16T02:51:19.493Z,81.60
2019-02-16T02:51:54.825Z,76.90
2019-02-16T02:52:30.144Z,76.75
2019-02-16T02:53:05.466Z,81.35
2019-02-16T02:53:40.708Z,76.45
2019-02-16T02:54:16.006Z,79.10
2019-02-16T02:54:51.487Z,78.70
2019-02-16T02:55:26.869Z,72.72
2019-02-16T02:56:02.145Z,75.45
2019-02-16T02:56:37.484Z,74.40
2019-02-16T02:57:12.932Z,72.55
2019-02-16T02:57:48.330Z,74.90
2019-02-16T02:58:23.766Z,76.70
2019-02-16T02:58:59.236Z,77.58
2019-02-16T02:59:34.727Z,74.62
2019-02-16T03:00:10.246Z,76.02
2019-02-16T03:00:45.753Z,77.15
2019-02-16T03:01:20.986Z,78.07
2019-02-16T03:01:56.372Z,77.60
2019-02-16T03:02:31.772Z,77.55
2019-02-16T03:03:07.132Z,78.50
2019-02-16T03:03:42.544Z,80.95
2019-02-16T03:04:18.053Z,78.00
2019-02-16T03:04:53.564Z,78.05
2019-02-16T03:05:28.833Z,78.80
2019-02-16T03:06:04.213Z,79.95
2019-02-16T03:06:39.792Z,77.67
2019-02-16T03:07:15.089Z,81.22
2019-02-16T03:07:50.609Z,75.72
2019-02-16T03:08:25.944Z,80.90
2019-02-16T03:09:01.393Z,84.17
2019-02-16T03:09:36.813Z,78.90
2019-02-16T03:10:12.151Z,80.28
2019-02-16T03:10:47.692Z,83.12
2019-02-16T03:11:23.086Z,89.32
2019-02-16T03:11:58.364Z,80.03
2019-02-16T03:12:33.686Z,80.85
2019-02-16T03:13:09.235Z,82.25
2019-02-16T03:13:44.536Z,80.15
2019-02-16T03:14:20.250Z,82.50
2019-02-16T03:14:55.974Z,81.42
2019-02-16T03:15:31.884Z,80.72
2019-02-16T03:16:07.203Z,81.35
2019-02-16T03:16:42.772Z,72.08
2019-02-16T03:17:18.085Z,69.15
2019-02-16T03:17:57.811Z,66.92
2019-02-16T03:18:33.183Z,69.42
2019-02-16T03:19:08.526Z,70.97
2019-02-16T03:19:44.092Z,73.30
2019-02-16T03:20:23.811Z,73.85
2019-02-16T03:21:02.584Z,75.00
2019-02-16T03:21:38.444Z,74.03
2019-02-16T03:22:14.061Z,72.37
2019-02-16T03:23:17.484Z,80.87
2019-02-16T03:23:52.792Z,75.00
2019-02-16T03:24:28.084Z,72.72
2019-02-16T03:25:03.674Z,73.70
2019-02-16T03:25:38.987Z,68.57
2019-02-16T03:26:57.444Z,70.62
2019-02-16T03:27:57.685Z,66.70
2019-02-16T03:28:52.694Z,63.78
2019-02-16T03:29:31.655Z,64.42
2019-02-16T03:30:32.413Z,70.75
2019-02-16T03:31:59.298Z,69.35
2019-02-16T03:32:58.073Z,61.88
2019-02-16T03:33:44.574Z,62.17
2019-02-16T03:34:23.626Z,58.42
2019-02-16T03:35:55.230Z,61.42
2019-02-16T03:37:23.488Z,57.35
2019-02-16T03:38:21.047Z,60.10
2019-02-16T03:39:18.689Z,72.50
2019-02-16T03:39:54.048Z,63.20
2019-02-16T03:40:29.566Z,68.33
2019-02-16T03:41:05.084Z,77.65
2019-02-16T03:41:40.414Z,85.95
2019-02-16T03:42:16.165Z,81.70
2019-02-16T03:42:51.527Z,86.95
2019-02-16T03:43:26.824Z,82.22
2019-02-16T03:44:02.225Z,75.35
2019-02-16T03:44:37.564Z,82.50
2019-02-16T03:45:13.011Z,79.67
2019-02-16T03:45:48.509Z,86.75
2019-02-16T03:46:23.844Z,81.87
2019-02-16T03:46:59.264Z,79.82
2019-02-16T03:47:34.643Z,78.45
2019-02-16T03:48:10.224Z,81.25
2019-02-16T03:48:45.603Z,76.42
2019-02-16T03:49:20.863Z,78.00
2019-02-16T03:49:56.168Z,77.12
2019-02-16T03:50:31.436Z,80.65
2019-02-16T03:51:06.686Z,83.30
2019-02-16T03:51:42.187Z,77.32
2019-02-16T03:52:17.484Z,82.78
2019-02-16T03:52:52.884Z,79.70
2019-02-16T03:53:28.291Z,84.13
2019-02-16T03:54:03.532Z,84.45
2019-02-16T03:54:38.990Z,84.97
2019-02-16T03:55:14.396Z,88.45
2019-02-16T03:55:49.846Z,88.07
2019-02-16T03:56:25.169Z,94.25
2019-02-16T03:57:00.723Z,89.10
2019-02-16T03:57:36.249Z,88.15
2019-02-16T03:58:11.587Z,84.83
2019-02-16T03:58:46.928Z,82.95
2019-02-16T03:59:59.081Z,84.92
2019-02-16T04:00:34.753Z,74.95
2019-02-16T04:01:10.453Z,79.20
2019-02-16T04:01:46.133Z,77.78
2019-02-16T04:02:21.672Z,74.62
2019-02-16T04:02:57.265Z,78.47
2019-02-16T04:03:32.909Z,71.72
2019-02-16T04:04:09.637Z,75.30
2019-02-16T04:04:45.438Z,74.70
2019-02-16T04:05:21.427Z,75.62
2019-02-16T04:05:57.204Z,81.00
2019-02-16T04:06:32.999Z,78.35
2019-02-16T04:07:08.554Z,76.30
2019-02-16T04:07:44.119Z,75.55
2019-02-16T04:08:20.381Z,79.97
2019-02-16T04:08:56.467Z,74.65
2019-02-16T04:09:32.297Z,77.00
2019-02-16T04:10:07.938Z,77.92
2019-02-16T04:10:43.585Z,78.87
2019-02-16T04:11:19.058Z,72.75
2019-02-16T04:11:55.047Z,73.42
2019-02-16T04:12:30.781Z,74.72
2019-02-16T04:13:06.462Z,75.85
2019-02-16T04:13:42.263Z,76.50
2019-02-16T04:14:17.723Z,79.70
2019-02-16T04:14:53.412Z,76.45
2019-02-16T04:15:29.154Z,73.37
2019-02-16T04:16:04.735Z,88.75
2019-02-16T04:16:40.473Z,86.42
2019-02-16T04:17:16.109Z,81.95
2019-02-16T04:17:51.855Z,71.37
2019-02-16T04:18:27.674Z,73.33
2019-02-16T04:19:03.381Z,71.15
2019-02-16T04:19:39.424Z,78.83
2019-02-16T04:20:15.160Z,66.35
2019-02-16T04:20:50.981Z,61.95
2019-02-16T04:21:26.661Z,64.05
2019-02-16T04:22:02.322Z,62.55
2019-02-16T04:22:37.907Z,71.70
2019-02-16T04:23:14.174Z,72.42
2019-02-16T04:23:49.725Z,73.55
2019-02-16T04:24:25.521Z,73.62
2019-02-16T04:25:01.338Z,74.47
2019-02-16T04:25:36.847Z,73.90
2019-02-16T04:26:12.498Z,73.65
2019-02-16T04:26:48.247Z,72.50
2019-02-16T04:27:23.966Z,72.85
2019-02-16T04:27:59.688Z,74.92
2019-02-16T04:28:35.228Z,67.37
2019-02-16T04:29:10.868Z,70.32
2019-02-16T04:29:46.532Z,73.50
2019-02-16T04:30:22.175Z,76.22
2019-02-16T04:30:57.864Z,70.90
2019-02-16T04:31:34.023Z,73.90
2019-02-16T04:32:09.638Z,70.03
2019-02-16T04:32:45.198Z,73.85
2019-02-16T04:33:20.767Z,72.50
2019-02-16T04:33:56.481Z,71.55
2019-02-16T04:34:32.261Z,68.62
2019-02-16T04:35:08.035Z,73.92
2019-02-16T04:35:43.727Z,75.40
2019-02-16T04:36:19.394Z,77.92
2019-02-16T04:36:55.615Z,81.05
2019-02-16T04:37:31.196Z,76.60
2019-02-16T04:38:06.839Z,73.42
2019-02-16T04:38:42.475Z,78.35
2019-02-16T04:39:18.114Z,77.55
2019-02-16T04:39:53.692Z,78.12
2019-02-16T04:40:29.347Z,81.08
2019-02-16T04:41:05.185Z,88.95
2019-02-16T04:41:41.061Z,87.72
2019-02-16T04:42:16.628Z,86.92
2019-02-16T04:42:52.180Z,81.92
2019-02-16T04:43:28.068Z,85.22
2019-02-16T04:44:03.815Z,90.22
2019-02-16T04:44:39.410Z,85.28
2019-02-16T04:45:15.197Z,83.03
2019-02-16T04:45:50.907Z,84.55
2019-02-16T04:46:26.534Z,78.85
2019-02-16T04:47:02.307Z,76.70
2019-02-16T04:47:38.061Z,77.45
2019-02-16T04:48:13.833Z,72.87
2019-02-16T04:48:49.313Z,72.45
2019-02-16T04:49:25.146Z,70.90
2019-02-16T04:50:00.775Z,73.67
2019-02-16T04:50:36.413Z,71.05
2019-02-16T04:51:11.988Z,75.17
2019-02-16T04:51:48.291Z,75.32
2019-02-16T04:52:34.001Z,77.47
2019-02-16T04:53:01.180Z,71.75
2019-02-16T04:53:36.701Z,73.60
2019-02-16T04:54:12.445Z,69.62
2019-02-16T04:54:50.014Z,74.07
2019-02-16T04:55:25.865Z,73.85
2019-02-16T04:56:01.539Z,70.03
2019-02-16T04:56:36.999Z,75.52
2019-02-16T04:57:12.797Z,80.55
2019-02-16T04:57:48.444Z,77.47
2019-02-16T04:58:24.081Z,77.60
2019-02-16T04:58:59.818Z,76.67
2019-02-16T04:59:35.457Z,80.15
2019-02-16T05:00:11.573Z,77.70
2019-02-16T05:00:47.386Z,72.00
2019-02-16T05:01:23.140Z,71.25
2019-02-16T05:01:59.100Z,72.22
2019-02-16T05:02:34.767Z,65.40
2019-02-16T05:03:10.557Z,64.32
2019-02-16T05:03:46.179Z,67.20
2019-02-16T05:04:21.785Z,62.53
2019-02-16T05:04:57.559Z,61.02
2019-02-16T05:05:34.722Z,65.67
2019-02-16T05:06:11.139Z,65.90
2019-02-16T05:06:46.740Z,61.77
2019-02-16T05:07:22.326Z,63.58
2019-02-16T05:07:58.064Z,61.40
2019-02-16T05:08:33.752Z,62.75
2019-02-16T05:09:09.466Z,63.83
2019-02-16T05:09:45.124Z,64.17
2019-02-16T05:10:20.747Z,60.75
2019-02-16T05:10:56.466Z,61.35
2019-02-16T05:11:32.164Z,57.75
2019-02-16T05:12:08.054Z,60.20
2019-02-16T05:12:43.828Z,58.35
2019-02-16T05:13:19.826Z,60.17
2019-02-16T05:13:55.584Z,61.65
2019-02-16T05:14:31.365Z,65.70
2019-02-16T05:15:07.587Z,64.95
2019-02-16T05:15:43.266Z,65.25
2019-02-16T05:16:19.034Z,65.32
2019-02-16T05:16:54.717Z,65.97
2019-02-16T05:17:33.637Z,60.83
2019-02-16T05:18:09.698Z,62.60
2019-02-16T05:18:47.498Z,62.17
2019-02-16T05:19:23.106Z,67.62
2019-02-16T05:19:59.917Z,66.50
2019-02-16T05:20:35.582Z,73.33
2019-02-16T05:21:11.182Z,69.25
2019-02-16T05:21:47.704Z,67.72
2019-02-16T05:22:23.203Z,71.02
2019-02-16T05:22:58.979Z,68.70
2019-02-16T05:23:56.268Z,65.20
2019-02-16T05:24:55.167Z,61.42
2019-02-16T05:25:32.708Z,63.33
2019-02-16T05:26:08.415Z,66.62
2019-02-16T05:26:44.027Z,70.70
2019-02-16T05:27:19.839Z,66.75
2019-02-16T05:27:55.404Z,70.40
2019-02-16T05:28:30.978Z,67.80
2019-02-16T05:29:06.530Z,63.42
2019-02-16T05:29:42.110Z,60.80
2019-02-16T05:30:17.882Z,63.78
2019-02-16T05:30:53.558Z,63.23
2019-02-16T05:31:29.338Z,62.43
2019-02-16T05:32:05.012Z,60.92
2019-02-16T05:32:40.520Z,62.05
2019-02-16T05:33:16.344Z,60.23
2019-02-16T05:33:52.107Z,62.98
2019-02-16T05:34:27.936Z,55.63
2019-02-16T05:35:04.245Z,60.25
2019-02-16T05:35:40.135Z,61.40
2019-02-16T05:36:16.148Z,61.25
2019-02-16T05:36:51.781Z,65.95
2019-02-16T05:37:27.622Z,72.45
2019-02-16T05:38:03.263Z,66.12
2019-02-16T05:38:38.920Z,65.60
2019-02-16T05:39:14.985Z,64.20
2019-02-16T05:39:50.726Z,60.28
2019-02-16T05:40:26.589Z,66.37
2019-02-16T05:41:02.248Z,70.72
2019-02-16T05:41:37.961Z,74.25
2019-02-16T05:42:13.570Z,77.45
2019-02-16T05:42:49.081Z,82.57
2019-02-16T05:43:24.614Z,78.90
2019-02-16T05:44:00.580Z,73.17
2019-02-16T05:44:36.175Z,76.62
2019-02-16T05:45:11.902Z,77.32
2019-02-16T05:45:47.733Z,77.10
2019-02-16T05:46:24.687Z,70.22
2019-02-16T05:47:00.567Z,71.50
2019-02-16T05:47:36.191Z,74.82
2019-02-16T05:48:12.018Z,71.12
2019-02-16T05:48:47.721Z,69.58
2019-02-16T05:49:23.200Z,65.97
2019-02-16T05:49:58.782Z,66.05
2019-02-16T05:50:34.409Z,67.27
2019-02-16T05:51:10.059Z,65.47
2019-02-16T05:51:45.641Z,65.80
2019-02-16T05:52:21.260Z,67.40
2019-02-16T05:52:56.908Z,64.53
2019-02-16T05:53:32.409Z,61.90
2019-02-16T05:54:08.128Z,61.18
2019-02-16T05:54:43.580Z,60.00
2019-02-16T05:55:19.221Z,60.98
2019-02-16T05:55:55.436Z,61.48
2019-02-16T05:56:31.185Z,61.60
2019-02-16T05:57:06.776Z,58.80
2019-02-16T05:57:42.296Z,59.00
2019-02-16T05:58:17.903Z,60.12
2019-02-16T05:58:53.620Z,60.63
2019-02-16T05:59:29.229Z,59.18
2019-02-16T06:00:05.419Z,59.23
2019-02-16T06:00:41.200Z,59.55
2019-02-16T06:01:17.010Z,58.70
2019-02-16T06:01:54.266Z,59.00
2019-02-16T06:02:30.168Z,65.22
2019-02-16T06:03:05.758Z,61.88
2019-02-16T06:03:41.548Z,61.05
2019-02-16T06:04:17.219Z,65.28
2019-02-16T06:04:52.904Z,67.22
2019-02-16T06:05:28.658Z,66.20
2019-02-16T06:06:04.171Z,66.87
2019-02-16T06:06:39.881Z,67.03
2019-02-16T06:07:15.888Z,67.35
2019-02-16T06:07:51.590Z,66.45
2019-02-16T06:08:27.102Z,71.97
2019-02-16T06:09:03.697Z,69.07
2019-02-16T06:09:39.217Z,70.65
2019-02-16T06:10:14.899Z,68.35
2019-02-16T06:10:50.782Z,66.45
2019-02-16T06:11:26.521Z,64.92
2019-02-16T06:12:02.143Z,74.77
2019-02-16T06:12:37.760Z,68.83
2019-02-16T06:13:13.421Z,69.27
2019-02-16T06:13:49.162Z,60.78
2019-02-16T06:14:24.920Z,67.22
2019-02-16T06:15:00.637Z,63.40
2019-02-16T06:15:36.397Z,66.97
2019-02-16T06:16:12.003Z,65.10
2019-02-16T06:16:47.750Z,61.37
2019-02-16T06:17:23.489Z,67.92
2019-02-16T06:17:59.459Z,68.45
2019-02-16T06:18:35.463Z,66.82
2019-02-16T06:19:11.266Z,66.40
2019-02-16T06:19:47.070Z,68.05
2019-02-16T06:20:22.866Z,66.07
2019-02-16T06:20:58.532Z,66.72
2019-02-16T06:21:34.409Z,65.10
2019-02-16T06:22:09.961Z,67.42
2019-02-16T06:22:45.655Z,67.95
2019-02-16T06:23:21.400Z,73.15
2019-02-16T06:23:57.140Z,70.67
2019-02-16T06:24:32.880Z,72.20
2019-02-16T06:25:10.065Z,70.42
2019-02-16T06:25:50.638Z,69.37
2019-02-16T06:26:45.193Z,72.42
2019-02-16T06:27:21.406Z,68.12
2019-02-16T06:27:57.079Z,70.12
2019-02-16T06:28:32.822Z,69.70
2019-02-16T06:29:14.898Z,68.60
2019-02-16T06:29:52.554Z,71.53
2019-02-16T06:30:37.452Z,71.17
2019-02-16T06:31:13.273Z,63.78
2019-02-16T06:31:49.155Z,68.15
2019-02-16T06:32:25.052Z,68.75
2019-02-16T06:33:00.937Z,69.82
2019-02-16T06:33:36.324Z,69.35
2019-02-16T06:34:11.714Z,66.95
2019-02-16T06:34:47.026Z,65.60
2019-02-16T06:35:41.666Z,67.65
2019-02-16T06:36:22.065Z,67.10
2019-02-16T06:36:58.772Z,67.97
2019-02-16T06:37:34.233Z,69.97
2019-02-16T06:38:09.552Z,70.08
2019-02-16T06:38:46.911Z,72.67
2019-02-16T06:39:22.627Z,74.40
2019-02-16T06:39:58.064Z,72.12
2019-02-16T06:40:33.423Z,70.28
2019-02-16T06:41:11.992Z,72.15
2019-02-16T06:41:47.428Z,72.42
2019-02-16T06:42:26.188Z,70.90
2019-02-16T06:43:01.454Z,66.67
2019-02-16T06:43:37.033Z,71.40
2019-02-16T06:44:12.525Z,69.87
2019-02-16T06:44:47.988Z,70.80
2019-02-16T06:45:23.472Z,69.72
2019-02-16T06:46:00.459Z,71.02
2019-02-16T06:46:35.987Z,67.97
2019-02-16T06:47:11.209Z,66.12
2019-02-16T06:47:46.652Z,67.62
2019-02-16T06:48:22.089Z,66.33
2019-02-16T06:48:57.608Z,68.95
2019-02-16T06:49:32.947Z,70.57
2019-02-16T06:50:08.267Z,69.70
2019-02-16T06:50:43.647Z,74.42
2019-02-16T06:51:18.907Z,68.92
2019-02-16T06:51:54.147Z,66.47
2019-02-16T06:52:29.466Z,65.37
2019-02-16T06:53:12.858Z,66.17
2019-02-16T06:53:45.174Z,64.82
2019-02-16T06:54:20.509Z,67.85
2019-02-16T06:54:55.828Z,70.50
2019-02-16T06:55:41.490Z,66.07
2019-02-16T06:56:42.335Z,67.27
2019-02-16T06:57:28.910Z,63.28
2019-02-16T06:58:04.349Z,66.75
2019-02-16T06:58:39.875Z,70.20
2019-02-16T06:59:15.235Z,67.85
2019-02-16T06:59:50.648Z,70.55
2019-02-16T07:00:28.604Z,70.42
2019-02-16T07:01:04.509Z,71.30
2019-02-16T07:01:40.125Z,68.12
2019-02-16T07:02:15.504Z,67.32
2019-02-16T07:02:51.186Z,67.65
2019-02-16T07:03:26.506Z,66.82
2019-02-16T07:04:01.973Z,65.85
2019-02-16T07:04:38.232Z,66.57
2019-02-16T07:05:13.886Z,67.30
2019-02-16T07:05:49.364Z,66.53
2019-02-16T07:06:24.676Z,68.55
2019-02-16T07:07:00.024Z,66.55
2019-02-16T07:07:35.564Z,66.67
2019-02-16T07:08:10.885Z,67.12
2019-02-16T07:08:46.306Z,64.50
2019-02-16T07:09:21.704Z,62.20
2019-02-16T07:09:57.205Z,63.55
2019-02-16T07:10:32.784Z,63.13
2019-02-16T07:11:08.385Z,59.15
2019-02-16T07:11:43.870Z,62.20
2019-02-16T07:12:19.392Z,62.20
2019-02-16T07:12:54.814Z,67.50
2019-02-16T07:13:30.344Z,67.15
2019-02-16T07:14:05.884Z,66.25
2019-02-16T07:14:41.272Z,68.85
2019-02-16T07:15:17.324Z,66.28
2019-02-16T07:16:10.584Z,62.30
2019-02-16T07:17:04.967Z,64.60
2019-02-16T07:17:51.444Z,61.08
2019-02-16T07:18:33.532Z,61.30
2019-02-16T07:19:31.212Z,57.83
2019-02-16T07:20:07.847Z,56.83
2019-02-16T07:20:43.866Z,56.53
2019-02-16T07:21:19.265Z,56.02
2019-02-16T07:21:54.604Z,61.23
2019-02-16T07:22:29.984Z,58.08
2019-02-16T07:23:05.345Z,60.88
2019-02-16T07:23:40.932Z,59.20
2019-02-16T07:24:16.587Z,57.93
2019-02-16T07:24:52.126Z,56.63
2019-02-16T07:25:27.566Z,56.75
2019-02-16T07:26:04.861Z,57.35
2019-02-16T07:26:39.956Z,54.70
2019-02-16T07:27:15.486Z,55.25
2019-02-16T07:27:50.882Z,53.80
2019-02-16T07:28:26.290Z,56.85
2019-02-16T07:29:01.789Z,54.93
2019-02-16T07:29:37.334Z,58.68
2019-02-16T07:30:13.166Z,57.85
2019-02-16T07:30:48.612Z,57.73
2019-02-16T07:31:24.031Z,54.60
2019-02-16T07:31:59.574Z,55.17
2019-02-16T07:32:34.966Z,54.35
2019-02-16T07:33:10.547Z,55.75
2019-02-16T07:33:45.926Z,57.23
2019-02-16T07:34:21.386Z,58.68
2019-02-16T07:34:56.711Z,56.92
2019-02-16T07:35:32.291Z,57.30
2019-02-16T07:36:07.586Z,56.13
2019-02-16T07:36:43.086Z,55.23
2019-02-16T07:37:18.446Z,54.33
2019-02-16T07:37:54.060Z,55.63
2019-02-16T07:38:29.415Z,58.75
2019-02-16T07:39:05.814Z,57.20
2019-02-16T07:39:41.366Z,54.27
2019-02-16T07:40:16.746Z,54.85
2019-02-16T07:40:52.149Z,54.03
2019-02-16T07:41:27.466Z,57.30
2019-02-16T07:42:03.147Z,56.18
2019-02-16T07:42:55.550Z,55.80
2019-02-16T07:43:58.906Z,54.48
2019-02-16T07:44:58.187Z,55.35
2019-02-16T07:46:07.627Z,55.75
2019-02-16T07:46:56.646Z,52.75
2019-02-16T07:47:57.087Z,52.48
2019-02-16T07:48:51.466Z,51.45
2019-02-16T07:49:32.649Z,49.70
2019-02-16T07:50:13.788Z,53.08